createdAt,value
2018-05-03T00:00:05.989Z,1005.09
2018-05-03T00:01:15.963Z,1005.15
2018-05-03T00:02:25.956Z,1005.16
2018-05-03T00:03:35.937Z,1005.16
2018-05-03T00:04:45.896Z,1005.17
2018-05-03T00:05:55.600Z,1005.19
2018-05-03T00:07:05.303Z,1005.16
2018-05-03T00:08:15.268Z,1005.14
2018-05-03T00:09:25.324Z,1005.12
2018-05-03T00:10:35.307Z,1005.09
2018-05-03T00:11:45.013Z,1005.03
2018-05-03T00:12:54.981Z,1004.97
2018-05-03T00:14:04.951Z,1004.93
2018-05-03T00:15:14.930Z,1004.87
2018-05-03T00:16:24.897Z,1004.93
2018-05-03T00:17:34.597Z,1004.96
2018-05-03T00:18:44.043Z,1005
2018-05-03T00:19:53.764Z,1005.04
2018-05-03T00:21:03.478Z,1005.07
2018-05-03T00:22:13.452Z,1005.07
2018-05-03T00:23:23.424Z,1005.07
2018-05-03T00:24:33.390Z,1005.11
2018-05-03T00:25:43.371Z,1005.06
2018-05-03T00:26:53.079Z,1005.03
2018-05-03T00:28:02.793Z,1005.05
2018-05-03T00:29:12.749Z,1005.06
2018-05-03T00:30:22.459Z,1005.14
2018-05-03T00:31:31.909Z,1005.16
2018-05-03T00:32:41.359Z,1005.21
2018-05-03T00:33:51.319Z,1005.25
2018-05-03T00:35:01.033Z,1005.21
2018-05-03T00:36:11.047Z,1005.15
2018-05-03T00:37:20.835Z,1005.15
2018-05-03T00:38:30.295Z,1005.15
2018-05-03T00:39:39.813Z,1005.13
2018-05-03T00:40:49.819Z,1005.18
2018-05-03T00:41:59.775Z,1005.17
2018-05-03T00:43:09.493Z,1005.21
2018-05-03T00:44:19.475Z,1005.19
2018-05-03T00:45:29.439Z,1005.19
2018-05-03T00:46:39.414Z,1005.19
2018-05-03T00:47:49.374Z,1005.19
2018-05-03T00:48:59.448Z,1005.17
2018-05-03T00:50:09.210Z,1005.19
2018-05-03T00:51:19.181Z,1005.24
2018-05-03T00:52:28.891Z,1005.23
2018-05-03T00:53:38.876Z,1005.24
2018-05-03T00:54:48.851Z,1005.25
2018-05-03T00:55:58.814Z,1005.21
2018-05-03T00:57:08.799Z,1005.23
2018-05-03T00:58:18.763Z,1005.22
2018-05-03T00:59:28.739Z,1005.26
2018-05-03T01:00:38.737Z,1005.24
2018-05-03T01:01:48.533Z,1005.27
2018-05-03T01:02:58.048Z,1005.24
2018-05-03T01:04:07.774Z,1005.28
2018-05-03T01:05:17.743Z,1005.3
2018-05-03T01:06:27.458Z,1005.33
2018-05-03T01:07:37.176Z,1005.37
2018-05-03T01:08:47.150Z,1005.38
2018-05-03T01:09:56.868Z,1005.3
2018-05-03T01:11:06.579Z,1005.33
2018-05-03T01:12:16.540Z,1005.34
2018-05-03T01:13:26.516Z,1005.37
2018-05-03T01:14:36.479Z,1005.38
2018-05-03T01:15:46.459Z,1005.41
2018-05-03T01:16:56.168Z,1005.45
2018-05-03T01:18:05.868Z,1005.49
2018-05-03T01:19:15.319Z,1005.49
2018-05-03T01:20:25.286Z,1005.5
2018-05-03T01:21:35.282Z,1005.49
2018-05-03T01:22:45.260Z,1005.52
2018-05-03T01:23:55.250Z,1005.53
2018-05-03T01:25:04.705Z,1005.54
2018-05-03T01:26:14.671Z,1005.53
2018-05-03T01:27:24.638Z,1005.51
2018-05-03T01:28:34.615Z,1005.5
2018-05-03T01:29:44.319Z,1005.52
2018-05-03T01:30:54.025Z,1005.56
2018-05-03T01:32:03.739Z,1005.52
2018-05-03T01:33:13.724Z,1005.52
2018-05-03T01:34:23.693Z,1005.51
2018-05-03T01:35:33.410Z,1005.51
2018-05-03T01:36:43.377Z,1005.48
2018-05-03T01:37:53.346Z,1005.49
2018-05-03T01:39:03.316Z,1005.48
2018-05-03T01:40:13.283Z,1005.47
2018-05-03T01:41:23.264Z,1005.39
2018-05-03T01:42:33.235Z,1005.43
2018-05-03T01:43:42.955Z,1005.38
2018-05-03T01:44:52.680Z,1005.42
2018-05-03T01:46:02.642Z,1005.45
2018-05-03T01:47:12.603Z,1005.42
2018-05-03T01:48:22.565Z,1005.43
2018-05-03T01:49:32.542Z,1005.42
2018-05-03T01:50:42.358Z,1005.37
2018-05-03T01:51:52.067Z,1005.36
2018-05-03T01:53:02.046Z,1005.34
2018-05-03T01:54:12.014Z,1005.3
2018-05-03T01:55:21.978Z,1005.24
2018-05-03T01:56:31.686Z,1005.21
2018-05-03T01:57:41.642Z,1005.25
2018-05-03T01:58:51.628Z,1005.25
2018-05-03T02:00:01.612Z,1005.27
2018-05-03T02:01:11.582Z,1005.3
2018-05-03T02:02:21.560Z,1005.32
2018-05-03T02:03:31.278Z,1005.39
2018-05-03T02:04:40.981Z,1005.35
2018-05-03T02:05:50.951Z,1005.42
2018-05-03T02:07:00.935Z,1005.45
2018-05-03T02:08:10.664Z,1005.44
2018-05-03T02:09:20.635Z,1005.42
2018-05-03T02:10:30.337Z,1005.45
2018-05-03T02:11:40.325Z,1005.52
2018-05-03T02:12:50.036Z,1005.47
2018-05-03T02:13:59.506Z,1005.39
2018-05-03T02:15:09.229Z,1005.4
2018-05-03T02:16:19.200Z,1005.38
2018-05-03T02:17:29.158Z,1005.4
2018-05-03T02:18:38.863Z,1005.38
2018-05-03T02:19:48.905Z,1005.36
2018-05-03T02:20:58.878Z,1005.3
2018-05-03T02:22:08.352Z,1005.29
2018-05-03T02:23:18.324Z,1005.29
2018-05-03T02:24:28.295Z,1005.33
2018-05-03T02:25:38.257Z,1005.26
2018-05-03T02:26:48.215Z,1005.24
2018-05-03T02:27:57.919Z,1005.24
2018-05-03T02:29:07.905Z,1005.2
2018-05-03T02:30:17.877Z,1005.18
2018-05-03T02:31:27.609Z,1005.1
2018-05-03T02:32:37.595Z,1005.06
2018-05-03T02:33:47.592Z,1005.07
2018-05-03T02:34:57.556Z,1005.08
2018-05-03T02:36:07.555Z,1005.1
2018-05-03T02:37:17.536Z,1005.1
2018-05-03T02:38:27.513Z,1005.13
2018-05-03T02:39:37.224Z,1005.19
2018-05-03T02:40:47.209Z,1005.16
2018-05-03T02:41:57.181Z,1005.2
2018-05-03T02:43:07.160Z,1005.22
2018-05-03T02:44:16.870Z,1005.3
2018-05-03T02:45:26.842Z,1005.3
2018-05-03T02:46:36.638Z,1005.37
2018-05-03T02:47:46.622Z,1005.38
2018-05-03T02:48:56.352Z,1005.43
2018-05-03T02:50:05.806Z,1005.43
2018-05-03T02:51:15.517Z,1005.45
2018-05-03T02:52:25.475Z,1005.44
2018-05-03T02:53:35.209Z,1005.43
2018-05-03T02:54:44.937Z,1005.39
2018-05-03T02:55:54.954Z,1005.35
2018-05-03T02:57:04.923Z,1005.35
2018-05-03T02:58:14.886Z,1005.37
2018-05-03T02:59:24.921Z,1005.37
2018-05-03T03:00:34.909Z,1005.42
2018-05-03T03:01:44.902Z,1005.43
2018-05-03T03:02:54.880Z,1005.46
2018-05-03T03:04:04.327Z,1005.46
2018-05-03T03:05:14.294Z,1005.46
2018-05-03T03:06:24.266Z,1005.49
2018-05-03T03:07:34.231Z,1005.46
2018-05-03T03:08:44.212Z,1005.41
2018-05-03T03:09:53.922Z,1005.39
2018-05-03T03:11:03.887Z,1005.48
2018-05-03T03:12:13.340Z,1005.49
2018-05-03T03:13:23.050Z,1005.54
2018-05-03T03:14:33.026Z,1005.53
2018-05-03T03:15:42.991Z,1005.49
2018-05-03T03:16:52.696Z,1005.5
2018-05-03T03:18:02.675Z,1005.42
2018-05-03T03:19:12.630Z,1005.42
2018-05-03T03:20:22.597Z,1005.39
2018-05-03T03:21:32.299Z,1005.45
2018-05-03T03:22:42.011Z,1005.49
2018-05-03T03:23:51.708Z,1005.53
2018-05-03T03:25:01.419Z,1005.54
2018-05-03T03:26:11.392Z,1005.55
2018-05-03T03:27:20.842Z,1005.55
2018-05-03T03:28:30.807Z,1005.56
2018-05-03T03:29:40.520Z,1005.54
2018-05-03T03:30:49.714Z,1005.56
2018-05-03T03:31:59.692Z,1005.58
2018-05-03T03:33:09.684Z,1005.6
2018-05-03T03:34:19.395Z,1005.61
2018-05-03T03:35:29.372Z,1005.63
2018-05-03T03:36:39.350Z,1005.73
2018-05-03T03:37:49.317Z,1005.76
2018-05-03T03:38:59.036Z,1005.81
2018-05-03T03:40:09.009Z,1005.86
2018-05-03T03:41:18.974Z,1005.85
2018-05-03T03:42:28.963Z,1005.86
2018-05-03T03:43:38.682Z,1005.82
2018-05-03T03:44:48.638Z,1005.82
2018-05-03T03:45:58.606Z,1005.76
2018-05-03T03:47:08.311Z,1005.75
2018-05-03T03:48:18.279Z,1005.76
2018-05-03T03:49:28.245Z,1005.76
2018-05-03T03:50:38.213Z,1005.77
2018-05-03T03:51:48.193Z,1005.73
2018-05-03T03:52:58.157Z,1005.72
2018-05-03T03:54:08.143Z,1005.75
2018-05-03T03:55:17.857Z,1005.82
2018-05-03T03:56:27.831Z,1005.88
2018-05-03T03:57:37.551Z,1005.89
2018-05-03T03:58:47.526Z,1005.91
2018-05-03T03:59:57.245Z,1005.94
2018-05-03T04:01:06.955Z,1005.9
2018-05-03T04:02:16.657Z,1005.94
2018-05-03T04:03:26.634Z,1005.99
2018-05-03T04:04:36.610Z,1006.02
2018-05-03T04:05:46.312Z,1006.06
2018-05-03T04:06:56.014Z,1006.02
2018-05-03T04:08:05.995Z,1006.02
2018-05-03T04:09:15.960Z,1005.94
2018-05-03T04:10:25.509Z,1005.97
2018-05-03T04:11:35.220Z,1005.91
2018-05-03T04:12:44.931Z,1005.89
2018-05-03T04:13:54.902Z,1005.82
2018-05-03T04:15:04.902Z,1005.82
2018-05-03T04:16:14.612Z,1005.81
2018-05-03T04:17:24.586Z,1005.8
2018-05-03T04:18:34.557Z,1005.86
2018-05-03T04:19:44.523Z,1005.84
2018-05-03T04:20:54.527Z,1005.84
2018-05-03T04:22:04.585Z,1005.84
2018-05-03T04:23:14.398Z,1005.82
2018-05-03T04:24:24.367Z,1005.84
2018-05-03T04:25:34.445Z,1005.81
2018-05-03T04:26:44.409Z,1005.82
2018-05-03T04:27:54.395Z,1005.79
2018-05-03T04:29:04.130Z,1005.81
2018-05-03T04:30:14.103Z,1005.81
2018-05-03T04:31:23.817Z,1005.8
2018-05-03T04:32:33.798Z,1005.76
2018-05-03T04:33:43.765Z,1005.8
2018-05-03T04:34:53.727Z,1005.85
2018-05-03T04:36:03.699Z,1005.86
2018-05-03T04:37:13.681Z,1005.81
2018-05-03T04:38:23.388Z,1005.78
2018-05-03T04:39:33.357Z,1005.74
2018-05-03T04:40:43.070Z,1005.7
2018-05-03T04:41:53.040Z,1005.75
2018-05-03T04:43:03.013Z,1005.76
2018-05-03T04:44:12.466Z,1005.82
2018-05-03T04:45:22.662Z,1005.82
2018-05-03T04:46:32.378Z,1005.86
2018-05-03T04:47:42.354Z,1005.86
2018-05-03T04:48:52.074Z,1005.86
2018-05-03T04:50:02.051Z,1005.86
2018-05-03T04:51:11.754Z,1005.85
2018-05-03T04:52:21.736Z,1005.85
2018-05-03T04:53:31.718Z,1005.87
2018-05-03T04:54:41.696Z,1005.86
2018-05-03T04:55:51.673Z,1005.88
2018-05-03T04:57:01.398Z,1005.9
2018-05-03T04:58:11.369Z,1005.87
2018-05-03T04:59:21.355Z,1005.9
2018-05-03T05:00:31.067Z,1005.88
2018-05-03T05:01:41.045Z,1005.9
2018-05-03T05:02:51.030Z,1005.94
2018-05-03T05:04:01.004Z,1005.91
2018-05-03T05:05:10.969Z,1005.94
2018-05-03T05:06:20.693Z,1005.94
2018-05-03T05:07:30.439Z,1005.92
2018-05-03T05:08:40.422Z,1005.9
2018-05-03T05:09:50.404Z,1005.89
2018-05-03T05:11:00.396Z,1005.91
2018-05-03T05:12:10.359Z,1005.9
2018-05-03T05:13:20.352Z,1005.96
2018-05-03T05:14:30.065Z,1005.96
2018-05-03T05:15:40.049Z,1005.95
2018-05-03T05:16:50.006Z,1005.97
2018-05-03T05:17:59.507Z,1005.92
2018-05-03T05:19:09.884Z,1005.92
2018-05-03T05:20:19.868Z,1005.84
2018-05-03T05:21:29.866Z,1005.86
2018-05-03T05:22:39.863Z,1005.84
2018-05-03T05:23:49.844Z,1005.84
2018-05-03T05:24:59.816Z,1005.89
2018-05-03T05:26:09.527Z,1005.94
2018-05-03T05:27:19.494Z,1005.92
2018-05-03T05:28:29.458Z,1005.92
2018-05-03T05:29:39.189Z,1006.01
2018-05-03T05:30:49.274Z,1005.98
2018-05-03T05:31:58.992Z,1005.99
2018-05-03T05:33:09.010Z,1006.04
2018-05-03T05:34:19.017Z,1006.04
2018-05-03T05:35:28.995Z,1006.05
2018-05-03T05:36:38.453Z,1006.03
2018-05-03T05:37:48.429Z,1006.05
2018-05-03T05:38:58.489Z,1006.04
2018-05-03T05:40:08.308Z,1006.05
2018-05-03T05:41:18.279Z,1006.03
2018-05-03T05:42:28.010Z,1006.04
2018-05-03T05:43:37.720Z,1006.04
2018-05-03T05:44:47.765Z,1006.05
2018-05-03T05:45:57.745Z,1006.06
2018-05-03T05:47:07.740Z,1006.02
2018-05-03T05:48:17.711Z,1006.04
2018-05-03T05:49:27.434Z,1006.03
2018-05-03T05:50:37.415Z,1006.09
2018-05-03T05:51:47.132Z,1006.04
2018-05-03T05:52:56.846Z,1006.04
2018-05-03T05:54:06.838Z,1006.07
2018-05-03T05:55:16.564Z,1006.06
2018-05-03T05:56:26.538Z,1006.08
2018-05-03T05:57:36.623Z,1006.11
2018-05-03T05:58:46.586Z,1006.17
2018-05-03T05:59:56.566Z,1006.09
2018-05-03T06:01:06.571Z,1006.17
2018-05-03T06:02:16.540Z,1006.16
2018-05-03T06:03:26.516Z,1006.22
2018-05-03T06:04:36.234Z,1006.22
2018-05-03T06:05:45.945Z,1006.18
2018-05-03T06:06:55.939Z,1006.19
2018-05-03T06:08:05.926Z,1006.16
2018-05-03T06:09:15.385Z,1006.18
2018-05-03T06:10:25.435Z,1006.21
2018-05-03T06:11:35.246Z,1006.2
2018-05-03T06:12:45.242Z,1006.22
2018-05-03T06:13:55.300Z,1006.25
2018-05-03T06:15:05.305Z,1006.26
2018-05-03T06:16:15.287Z,1006.34
2018-05-03T06:17:25.303Z,1006.22
2018-05-03T06:18:35.043Z,1006.25
2018-05-03T06:19:44.757Z,1006.27
2018-05-03T06:20:54.496Z,1006.27
2018-05-03T06:22:04.487Z,1006.24
2018-05-03T06:23:14.463Z,1006.24
2018-05-03T06:24:24.442Z,1006.31
2018-05-03T06:25:34.484Z,1006.22
2018-05-03T06:26:44.477Z,1006.29
2018-05-03T06:27:54.575Z,1006.28
2018-05-03T06:29:04.548Z,1006.24
2018-05-03T06:30:14.311Z,1006.27
2018-05-03T06:31:24.302Z,1006.26
2018-05-03T06:32:34.286Z,1006.25
2018-05-03T06:33:44.283Z,1006.3
2018-05-03T06:34:54.267Z,1006.33
2018-05-03T06:36:03.741Z,1006.37
2018-05-03T06:37:13.754Z,1006.4
2018-05-03T06:38:23.810Z,1006.38
2018-05-03T06:39:33.581Z,1006.39
2018-05-03T06:40:43.578Z,1006.46
2018-05-03T06:41:53.559Z,1006.38
2018-05-03T06:43:03.294Z,1006.38
2018-05-03T06:44:13.293Z,1006.39
2018-05-03T06:45:23.277Z,1006.42
2018-05-03T06:46:33.365Z,1006.43
2018-05-03T06:47:43.085Z,1006.45
2018-05-03T06:48:53.142Z,1006.47
2018-05-03T06:50:02.873Z,1006.46
2018-05-03T06:51:12.865Z,1006.49
2018-05-03T06:52:22.588Z,1006.55
2018-05-03T06:53:32.327Z,1006.52
2018-05-03T06:54:42.314Z,1006.6
2018-05-03T06:55:52.285Z,1006.63
2018-05-03T06:57:02.375Z,1006.64
2018-05-03T06:58:12.106Z,1006.67
2018-05-03T06:59:22.119Z,1006.79
2018-05-03T07:00:32.096Z,1006.84
2018-05-03T07:01:42.139Z,1006.93
2018-05-03T07:02:52.136Z,1006.92
2018-05-03T07:04:02.181Z,1006.96
2018-05-03T07:05:12.796Z,1006.96
2018-05-03T07:06:22.516Z,1006.97
2018-05-03T07:07:32.500Z,1007.03
2018-05-03T07:08:42.564Z,1007.05
2018-05-03T07:09:52.627Z,1007.03
2018-05-03T07:11:02.727Z,1007.06
2018-05-03T07:12:12.709Z,1007.06
2018-05-03T07:13:22.471Z,1007.08
2018-05-03T07:14:32.455Z,1007.11
2018-05-03T07:15:42.447Z,1007.16
2018-05-03T07:16:52.438Z,1007.18
2018-05-03T07:18:02.163Z,1007.34
2018-05-03T07:19:12.152Z,1007.3
2018-05-03T07:20:22.133Z,1007.32
2018-05-03T07:21:32.164Z,1007.41
2018-05-03T07:22:42.153Z,1007.42
2018-05-03T07:23:51.968Z,1007.4
2018-05-03T07:25:02.669Z,1007.47
2018-05-03T07:26:12.718Z,1007.54
2018-05-03T07:27:22.736Z,1007.62
2018-05-03T07:28:32.488Z,1007.62
2018-05-03T07:29:42.536Z,1007.85
2018-05-03T07:30:52.503Z,1007.78
2018-05-03T07:32:02.496Z,1007.78
2018-05-03T07:33:12.738Z,1007.79
2018-05-03T07:34:22.461Z,1007.85
2018-05-03T07:35:32.432Z,1007.87
2018-05-03T07:36:42.403Z,1007.92
2018-05-03T07:37:52.402Z,1007.95
2018-05-03T07:39:02.399Z,1007.98
2018-05-03T07:40:12.409Z,1007.98
2018-05-03T07:41:22.403Z,1008.07
2018-05-03T07:42:32.400Z,1008.11
2018-05-03T07:43:42.383Z,1008.18
2018-05-03T07:44:52.411Z,1008.18
2018-05-03T07:46:02.416Z,1008.25
2018-05-03T07:47:12.166Z,1008.3
2018-05-03T07:48:22.173Z,1008.24
2018-05-03T07:49:32.444Z,1008.29
2018-05-03T07:50:41.920Z,1008.36
2018-05-03T07:51:51.633Z,1008.3
2018-05-03T07:53:01.366Z,1008.32
2018-05-03T07:54:10.812Z,1008.32
2018-05-03T07:55:20.814Z,1008.31
2018-05-03T07:56:30.568Z,1008.3
2018-05-03T07:57:40.604Z,1008.27
2018-05-03T07:58:50.411Z,1008.25
2018-05-03T08:00:00.482Z,1008.26
2018-05-03T08:01:09.697Z,1008.26
2018-05-03T08:02:19.444Z,1008.33
2018-05-03T08:03:28.671Z,1008.32
2018-05-03T08:04:38.219Z,1008.26
2018-05-03T08:05:48.216Z,1008.35
2018-05-03T08:06:57.947Z,1008.32
2018-05-03T08:08:07.950Z,1008.28
2018-05-03T08:09:17.948Z,1008.32
2018-05-03T08:10:27.994Z,1008.28
2018-05-03T08:11:38.058Z,1008.33
2018-05-03T08:12:47.786Z,1008.33
2018-05-03T08:13:57.781Z,1008.33
2018-05-03T08:15:07.795Z,1008.35
2018-05-03T08:16:17.807Z,1008.36
2018-05-03T08:17:27.808Z,1008.38
2018-05-03T08:18:37.830Z,1008.37
2018-05-03T08:19:47.824Z,1008.33
2018-05-03T08:20:57.808Z,1008.33
2018-05-03T08:22:07.789Z,1008.27
2018-05-03T08:23:17.526Z,1008.28
2018-05-03T08:24:27.580Z,1008.3
2018-05-03T08:25:37.329Z,1008.3
2018-05-03T08:26:47.337Z,1008.41
2018-05-03T08:27:57.339Z,1008.36
2018-05-03T08:29:07.726Z,1008.42
2018-05-03T08:30:17.731Z,1008.47
2018-05-03T08:31:28.017Z,1008.53
2018-05-03T08:32:38.004Z,1008.55
2018-05-03T08:33:47.755Z,1008.63
2018-05-03T08:34:57.735Z,1008.58
2018-05-03T08:36:07.463Z,1008.55
2018-05-03T08:37:17.438Z,1008.56
2018-05-03T08:38:27.228Z,1008.6
2018-05-03T08:39:37.269Z,1008.7
2018-05-03T08:40:47.341Z,1008.59
2018-05-03T08:41:57.327Z,1008.63
2018-05-03T08:43:06.800Z,1008.59
2018-05-03T08:44:16.520Z,1008.59
2018-05-03T08:45:26.504Z,1008.64
2018-05-03T08:46:36.511Z,1008.57
2018-05-03T08:47:46.521Z,1008.55
2018-05-03T08:48:56.296Z,1008.62
2018-05-03T08:50:06.040Z,1008.59
2018-05-03T08:51:16.052Z,1008.5
2018-05-03T08:52:26.088Z,1008.54
2018-05-03T08:53:35.813Z,1008.55
2018-05-03T08:54:45.812Z,1008.5
2018-05-03T08:55:55.553Z,1008.5
2018-05-03T08:57:05.542Z,1008.59
2018-05-03T08:58:15.550Z,1008.61
2018-05-03T08:59:25.583Z,1008.61
2018-05-03T09:00:35.566Z,1008.61
2018-05-03T09:01:45.385Z,1008.59
2018-05-03T09:02:56.132Z,1008.64
2018-05-03T09:04:06.235Z,1008.61
2018-05-03T09:05:16.253Z,1008.64
2018-05-03T09:06:26.256Z,1008.69
2018-05-03T09:07:36.294Z,1008.68
2018-05-03T09:08:46.788Z,1008.66
2018-05-03T09:09:56.820Z,1008.69
2018-05-03T09:11:06.825Z,1008.77
2018-05-03T09:12:16.833Z,1008.85
2018-05-03T09:13:26.815Z,1008.83
2018-05-03T09:14:36.826Z,1008.84
2018-05-03T09:15:46.623Z,1008.89
2018-05-03T09:16:56.657Z,1008.88
2018-05-03T09:18:06.683Z,1008.88
2018-05-03T09:19:16.154Z,1008.9
2018-05-03T09:20:26.076Z,1008.95
2018-05-03T09:21:35.568Z,1008.95
2018-05-03T09:22:45.050Z,1009.01
2018-05-03T09:23:55.030Z,1009.02
2018-05-03T09:25:05.068Z,1009.01
2018-05-03T09:26:15.066Z,1009
2018-05-03T09:27:25.053Z,1008.98
2018-05-03T09:28:34.786Z,1009.01
2018-05-03T09:29:44.769Z,1009.01
2018-05-03T09:30:54.556Z,1009.05
2018-05-03T09:32:04.533Z,1009.13
2018-05-03T09:33:14.262Z,1009.07
2018-05-03T09:34:23.999Z,1009.09
2018-05-03T09:35:34.047Z,1009.08
2018-05-03T09:36:44.040Z,1009.02
2018-05-03T09:37:54.030Z,1009
2018-05-03T09:39:03.783Z,1009.01
2018-05-03T09:40:14.178Z,1009.11
2018-05-03T09:41:23.899Z,1009.18
2018-05-03T09:42:33.637Z,1009.24
2018-05-03T09:43:43.633Z,1009.22
2018-05-03T09:44:53.657Z,1009.2
2018-05-03T09:46:03.661Z,1009.18
2018-05-03T09:47:13.392Z,1009.23
2018-05-03T09:48:23.244Z,1009.25
2018-05-03T09:49:32.994Z,1009.25
2018-05-03T09:50:42.745Z,1009.21
2018-05-03T09:51:52.743Z,1009.1
2018-05-03T09:53:02.565Z,1009.22
2018-05-03T09:54:12.217Z,1009.23
2018-05-03T09:55:22.235Z,1009.22
2018-05-03T09:56:31.995Z,1009.26
2018-05-03T09:57:41.998Z,1009.24
2018-05-03T09:58:52.023Z,1009.23
2018-05-03T10:00:02.112Z,1009.21
2018-05-03T10:01:12.360Z,1009.39
2018-05-03T10:02:22.352Z,1009.28
2018-05-03T10:03:32.372Z,1009.27
2018-05-03T10:04:42.437Z,1009.33
2018-05-03T10:05:52.476Z,1009.34
2018-05-03T10:07:02.563Z,1009.32
2018-05-03T10:08:12.307Z,1009.25
2018-05-03T10:09:22.300Z,1009.18
2018-05-03T10:10:32.283Z,1009.26
2018-05-03T10:11:42.289Z,1009.3
2018-05-03T10:12:52.301Z,1009.27
2018-05-03T10:14:02.046Z,1009.27
2018-05-03T10:15:12.035Z,1009.26
2018-05-03T10:16:21.782Z,1009.3
2018-05-03T10:17:31.803Z,1009.3
2018-05-03T10:18:41.810Z,1009.44
2018-05-03T10:19:51.576Z,1009.35
2018-05-03T10:21:01.583Z,1009.37
2018-05-03T10:22:11.322Z,1009.37
2018-05-03T10:23:20.790Z,1009.51
2018-05-03T10:24:30.807Z,1009.4
2018-05-03T10:25:40.806Z,1009.44
2018-05-03T10:26:50.552Z,1009.34
2018-05-03T10:28:00.567Z,1009.39
2018-05-03T10:29:10.293Z,1009.48
2018-05-03T10:30:20.466Z,1009.39
2018-05-03T10:31:30.431Z,1009.48
2018-05-03T10:32:39.900Z,1009.4
2018-05-03T10:33:49.651Z,1009.39
2018-05-03T10:34:59.646Z,1009.39
2018-05-03T10:36:09.824Z,1009.42
2018-05-03T10:37:20.004Z,1009.37
2018-05-03T10:38:30.016Z,1009.42
2018-05-03T10:39:40.023Z,1009.46
2018-05-03T10:40:49.760Z,1009.47
2018-05-03T10:41:59.856Z,1009.49
2018-05-03T10:43:10.523Z,1009.51
2018-05-03T10:44:20.521Z,1009.57
2018-05-03T10:45:30.526Z,1009.62
2018-05-03T10:46:40.524Z,1009.66
2018-05-03T10:47:50.520Z,1009.59
2018-05-03T10:49:00.271Z,1009.59
2018-05-03T10:50:10.708Z,1009.65
2018-05-03T10:51:20.468Z,1009.69
2018-05-03T10:52:30.471Z,1009.53
2018-05-03T10:53:40.191Z,1009.51
2018-05-03T10:54:49.931Z,1009.57
2018-05-03T10:55:59.659Z,1009.6
2018-05-03T10:57:09.139Z,1009.56
2018-05-03T10:58:19.138Z,1009.66
2018-05-03T10:59:29.145Z,1009.64
2018-05-03T11:00:39.137Z,1009.63
2018-05-03T11:01:49.165Z,1009.64
2018-05-03T11:02:59.193Z,1009.58
2018-05-03T11:04:09.284Z,1009.6
2018-05-03T11:05:19.309Z,1009.61
2018-05-03T11:06:29.622Z,1009.57
2018-05-03T11:07:39.622Z,1009.59
2018-05-03T11:08:49.359Z,1009.55
2018-05-03T11:09:58.895Z,1009.53
2018-05-03T11:11:08.644Z,1009.63
2018-05-03T11:12:18.973Z,1009.64
2018-05-03T11:13:28.971Z,1009.64
2018-05-03T11:14:38.706Z,1009.67
2018-05-03T11:15:48.449Z,1009.67
2018-05-03T11:16:58.430Z,1009.62
2018-05-03T11:18:08.528Z,1009.69
2018-05-03T11:19:18.267Z,1009.64
2018-05-03T11:20:28.253Z,1009.69
2018-05-03T11:21:38.231Z,1009.7
2018-05-03T11:22:48.224Z,1009.69
2018-05-03T11:23:58.242Z,1009.76
2018-05-03T11:25:08.257Z,1009.7
2018-05-03T11:26:18.317Z,1009.77
2018-05-03T11:27:28.307Z,1009.71
2018-05-03T11:28:38.041Z,1009.77
2018-05-03T11:29:47.741Z,1009.57
2018-05-03T11:30:57.766Z,1009.63
2018-05-03T11:32:07.529Z,1009.72
2018-05-03T11:33:17.528Z,1009.74
2018-05-03T11:34:27.518Z,1009.85
2018-05-03T11:35:37.515Z,1009.84
2018-05-03T11:36:47.601Z,1009.83
2018-05-03T11:37:58.153Z,1009.82
2018-05-03T11:39:07.882Z,1009.85
2018-05-03T11:40:17.636Z,1009.85
2018-05-03T11:41:27.620Z,1009.83
2018-05-03T11:42:37.630Z,1009.85
2018-05-03T11:43:47.947Z,1009.91
2018-05-03T11:44:57.940Z,1009.81
2018-05-03T11:46:07.927Z,1009.95
2018-05-03T11:47:17.659Z,1009.83
2018-05-03T11:48:27.662Z,1010.06
2018-05-03T11:49:37.682Z,1009.88
2018-05-03T11:50:47.673Z,1010.01
2018-05-03T11:51:57.396Z,1010.06
2018-05-03T11:53:07.134Z,1010.07
2018-05-03T11:54:16.604Z,1009.93
2018-05-03T11:55:26.600Z,1009.85
2018-05-03T11:56:36.685Z,1009.75
2018-05-03T11:57:46.430Z,1009.84
2018-05-03T11:58:56.417Z,1009.87
2018-05-03T12:00:06.462Z,1009.92
2018-05-03T12:01:16.452Z,1010.02
2018-05-03T12:02:26.544Z,1009.97
2018-05-03T12:03:37.171Z,1009.87
2018-05-03T12:04:46.655Z,1009.86
2018-05-03T12:05:56.733Z,1009.88
2018-05-03T12:07:06.814Z,1009.86
2018-05-03T12:08:16.792Z,1009.82
2018-05-03T12:09:26.543Z,1009.83
2018-05-03T12:10:36.576Z,1009.87
2018-05-03T12:11:46.668Z,1009.86
2018-05-03T12:12:56.998Z,1009.84
2018-05-03T12:14:06.975Z,1009.92
2018-05-03T12:15:16.986Z,1009.87
2018-05-03T12:16:26.997Z,1009.87
2018-05-03T12:17:37.013Z,1009.89
2018-05-03T12:18:47.018Z,1009.99
2018-05-03T12:19:57.015Z,1010.03
2018-05-03T12:21:06.989Z,1010.07
2018-05-03T12:22:16.736Z,1009.93
2018-05-03T12:23:26.711Z,1010
2018-05-03T12:24:36.434Z,1009.97
2018-05-03T12:25:46.416Z,1009.93
2018-05-03T12:26:56.424Z,1009.97
2018-05-03T12:28:06.438Z,1009.97
2018-05-03T12:29:16.165Z,1010
2018-05-03T12:30:26.151Z,1010.03
2018-05-03T12:31:35.369Z,1010.06
2018-05-03T12:32:45.361Z,1009.99
2018-05-03T12:33:55.348Z,1010.01
2018-05-03T12:35:05.360Z,1010.09
2018-05-03T12:36:15.356Z,1010.06
2018-05-03T12:37:25.352Z,1009.99
2018-05-03T12:38:35.084Z,1010.04
2018-05-03T12:39:44.809Z,1010.1
2018-05-03T12:40:54.546Z,1010.04
2018-05-03T12:42:04.292Z,1009.9
2018-05-03T12:43:14.292Z,1010.22
2018-05-03T12:44:24.376Z,1010.03
2018-05-03T12:45:34.360Z,1010.13
2018-05-03T12:46:44.355Z,1010.04
2018-05-03T12:47:54.357Z,1010.02
2018-05-03T12:49:04.080Z,1010.02
2018-05-03T12:50:14.071Z,1009.99
2018-05-03T12:51:23.794Z,1009.95
2018-05-03T12:52:33.531Z,1009.93
2018-05-03T12:53:43.530Z,1009.9
2018-05-03T12:54:53.287Z,1009.92
2018-05-03T12:56:03.314Z,1009.89
2018-05-03T12:57:13.319Z,1009.87
2018-05-03T12:58:23.325Z,1009.9
2018-05-03T12:59:33.324Z,1009.88
2018-05-03T13:00:43.333Z,1009.93
2018-05-03T13:01:53.278Z,1010.04
2018-05-03T13:03:03.012Z,1009.96
2018-05-03T13:04:13.021Z,1009.93
2018-05-03T13:05:22.764Z,1009.94
2018-05-03T13:06:32.785Z,1009.96
2018-05-03T13:07:42.789Z,1009.88
2018-05-03T13:08:52.778Z,1009.89
2018-05-03T13:10:02.792Z,1009.96
2018-05-03T13:11:12.796Z,1009.86
2018-05-03T13:12:22.781Z,1009.93
2018-05-03T13:13:32.278Z,1009.85
2018-05-03T13:14:42.026Z,1009.88
2018-05-03T13:15:52.012Z,1009.84
2018-05-03T13:17:01.741Z,1009.8
2018-05-03T13:18:11.460Z,1009.8
2018-05-03T13:19:21.679Z,1009.72
2018-05-03T13:20:31.678Z,1009.83
2018-05-03T13:21:41.415Z,1009.8
2018-05-03T13:22:51.405Z,1009.85
2018-05-03T13:24:01.425Z,1010.07
2018-05-03T13:25:11.417Z,1009.91
2018-05-03T13:26:21.412Z,1009.82
2018-05-03T13:27:31.389Z,1009.88
2018-05-03T13:28:41.374Z,1009.86
2018-05-03T13:29:51.357Z,1009.84
2018-05-03T13:31:01.167Z,1009.95
2018-05-03T13:32:10.895Z,1009.89
2018-05-03T13:33:20.887Z,1009.86
2018-05-03T13:34:30.970Z,1009.89
2018-05-03T13:35:41.221Z,1009.89
2018-05-03T13:36:51.205Z,1010.07
2018-05-03T13:38:01.213Z,1009.96
2018-05-03T13:39:10.946Z,1009.97
2018-05-03T13:40:20.759Z,1009.98
2018-05-03T13:41:30.767Z,1010
2018-05-03T13:42:40.764Z,1009.96
2018-05-03T13:43:50.773Z,1009.99
2018-05-03T13:45:00.758Z,1009.91
2018-05-03T13:46:10.484Z,1009.94
2018-05-03T13:47:20.237Z,1010.07
2018-05-03T13:48:30.490Z,1010.03
2018-05-03T13:49:40.489Z,1010.04
2018-05-03T13:50:50.492Z,1010.04
2018-05-03T13:52:00.484Z,1010.1
2018-05-03T13:53:10.466Z,1010.13
2018-05-03T13:54:19.985Z,1010.12
2018-05-03T13:55:29.739Z,1010.05
2018-05-03T13:56:39.621Z,1010.12
2018-05-03T13:57:49.612Z,1010.11
2018-05-03T13:58:59.617Z,1010.11
2018-05-03T14:00:09.624Z,1010.11
2018-05-03T14:01:19.614Z,1010.05
2018-05-03T14:02:29.607Z,1010.19
2018-05-03T14:03:39.085Z,1010.14
2018-05-03T14:04:49.066Z,1010.21
2018-05-03T14:05:59.068Z,1010.17
2018-05-03T14:07:08.878Z,1010.23
2018-05-03T14:08:19.393Z,1010.25